createdAt,value
2017-07-18T00:00:26.241Z,17.50
2017-07-18T00:02:54.415Z,17.50
2017-07-18T00:05:22.612Z,17.50
2017-07-18T00:07:51.552Z,17.40
2017-07-18T00:10:19.723Z,17.40
2017-07-18T00:12:47.928Z,17.30
2017-07-18T00:15:16.102Z,17.30
2017-07-18T00:17:44.277Z,17.30
2017-07-18T00:20:12.474Z,17.30
2017-07-18T00:22:41.415Z,17.30
2017-07-18T00:25:09.589Z,17.20
2017-07-18T00:27:37.793Z,17.20
2017-07-18T00:30:05.968Z,17.30
2017-07-18T00:32:34.140Z,17.20
2017-07-18T00:35:02.340Z,17.20
2017-07-18T00:37:31.283Z,17.20
2017-07-18T00:39:59.449Z,17.20
2017-07-18T00:42:27.660Z,17.10
2017-07-18T00:44:55.827Z,17.10
2017-07-18T00:47:24.008Z,17.00
2017-07-18T00:49:52.215Z,16.90
2017-07-18T00:52:21.154Z,16.80
2017-07-18T00:54:49.328Z,16.80
2017-07-18T00:57:17.521Z,16.80
2017-07-18T00:59:45.695Z,16.90
2017-07-18T01:02:13.863Z,16.80
2017-07-18T01:04:42.062Z,16.80
2017-07-18T01:07:10.233Z,16.80
2017-07-18T01:09:38.405Z,16.70
2017-07-18T01:12:06.602Z,16.70
2017-07-18T01:14:35.544Z,16.70
2017-07-18T01:17:03.713Z,16.70
2017-07-18T01:19:31.909Z,16.70
2017-07-18T01:22:00.082Z,16.70
2017-07-18T01:24:28.251Z,16.70
2017-07-18T01:26:56.444Z,16.60
2017-07-18T01:29:24.623Z,16.70
2017-07-18T01:31:52.792Z,16.60
2017-07-18T01:34:20.992Z,16.60
2017-07-18T01:36:49.940Z,16.70
2017-07-18T01:39:18.110Z,16.70
2017-07-18T01:41:46.300Z,16.70
2017-07-18T01:44:14.459Z,16.70
2017-07-18T01:46:42.627Z,16.60
2017-07-18T01:49:10.833Z,16.60
2017-07-18T01:51:39.001Z,16.50
2017-07-18T01:54:07.182Z,16.60
2017-07-18T01:56:35.405Z,16.60
2017-07-18T01:59:03.578Z,16.60
2017-07-18T02:01:31.765Z,16.50
2017-07-18T02:03:59.964Z,16.60
2017-07-18T02:06:28.134Z,16.50
2017-07-18T02:08:56.305Z,16.50
2017-07-18T02:11:24.506Z,16.50
2017-07-18T02:13:52.672Z,16.50
2017-07-18T02:16:20.845Z,16.40
2017-07-18T02:18:49.041Z,16.40
2017-07-18T02:21:17.217Z,16.40
2017-07-18T02:23:45.390Z,16.40
2017-07-18T02:26:13.590Z,16.40
2017-07-18T02:28:42.523Z,16.40
2017-07-18T02:31:10.697Z,16.40
2017-07-18T02:33:38.892Z,16.40
2017-07-18T02:36:07.062Z,16.40
2017-07-18T02:38:35.246Z,16.30
2017-07-18T02:41:03.458Z,16.20
2017-07-18T02:43:32.401Z,16.10
2017-07-18T02:46:00.568Z,16.10
2017-07-18T02:48:28.762Z,16.10
2017-07-18T02:50:56.935Z,16.10
2017-07-18T02:53:25.110Z,16.10
2017-07-18T02:55:53.317Z,16.10
2017-07-18T02:58:22.257Z,16.20
2017-07-18T03:00:50.430Z,16.20
2017-07-18T03:03:18.630Z,16.20
2017-07-18T03:05:46.802Z,16.30
2017-07-18T03:08:14.975Z,16.30
2017-07-18T03:10:43.497Z,16.40
2017-07-18T03:13:11.673Z,16.40
2017-07-18T03:15:39.844Z,16.50
2017-07-18T03:18:08.037Z,16.50
2017-07-18T03:20:36.223Z,16.60
2017-07-18T03:23:04.401Z,16.70
2017-07-18T03:25:32.597Z,16.70
2017-07-18T03:28:01.541Z,16.80
2017-07-18T03:30:29.714Z,16.80
2017-07-18T03:32:57.923Z,16.80
2017-07-18T03:35:26.091Z,16.90
2017-07-18T03:37:54.265Z,16.90
2017-07-18T03:40:22.479Z,17.00
2017-07-18T03:42:50.654Z,17.00
2017-07-18T03:45:18.824Z,17.00
2017-07-18T03:47:47.790Z,17.10
2017-07-18T03:50:15.953Z,17.10
2017-07-18T03:52:44.126Z,17.10
2017-07-18T03:55:12.321Z,17.10
2017-07-18T03:57:40.492Z,17.10
2017-07-18T04:00:08.668Z,17.20
2017-07-18T04:02:37.643Z,17.20
2017-07-18T04:05:05.820Z,17.10
2017-07-18T04:07:33.987Z,17.20
2017-07-18T04:10:02.593Z,17.20
2017-07-18T04:12:30.769Z,17.30
2017-07-18T04:14:58.942Z,17.40
2017-07-18T04:17:27.147Z,17.40
2017-07-18T04:19:55.317Z,17.50
2017-07-18T04:22:23.513Z,17.50
2017-07-18T04:24:51.688Z,17.50
2017-07-18T04:27:19.850Z,17.70
2017-07-18T04:29:48.019Z,17.70
2017-07-18T04:32:16.199Z,17.70
2017-07-18T04:34:44.370Z,17.80
2017-07-18T04:37:12.553Z,17.90
2017-07-18T04:39:41.199Z,17.90
2017-07-18T04:42:10.170Z,18.10
2017-07-18T04:44:38.355Z,18.00
2017-07-18T04:47:06.554Z,18.10
2017-07-18T04:49:35.479Z,18.20
2017-07-18T04:52:03.657Z,18.20
2017-07-18T04:54:31.870Z,18.20
2017-07-18T04:57:00.051Z,18.20
2017-07-18T04:59:28.224Z,18.20
2017-07-18T05:01:56.424Z,18.30
2017-07-18T05:04:25.369Z,18.40
2017-07-18T05:06:53.527Z,18.40
2017-07-18T05:09:22.494Z,18.50
2017-07-18T05:11:50.666Z,18.40
2017-07-18T05:14:18.827Z,18.50
2017-07-18T05:16:47.043Z,18.60
2017-07-18T05:19:15.962Z,18.70
2017-07-18T05:21:44.111Z,18.70
2017-07-18T05:24:13.080Z,18.80
2017-07-18T05:26:41.238Z,18.80
2017-07-18T05:29:09.433Z,18.80
2017-07-18T05:31:37.641Z,18.90
2017-07-18T05:34:06.576Z,19.00
2017-07-18T05:36:34.755Z,19.00
2017-07-18T05:39:02.953Z,19.10
2017-07-18T05:41:31.128Z,19.10
2017-07-18T05:43:59.279Z,19.10
2017-07-18T05:46:27.496Z,19.20
2017-07-18T05:48:56.419Z,19.40
2017-07-18T05:51:24.578Z,19.40
2017-07-18T05:53:52.774Z,19.50
2017-07-18T05:56:20.957Z,19.50
2017-07-18T05:58:49.134Z,19.50
2017-07-18T06:01:17.314Z,19.50
2017-07-18T06:03:47.125Z,19.60
2017-07-18T06:06:15.298Z,19.60
2017-07-18T06:08:43.488Z,19.60
2017-07-18T06:11:11.669Z,19.60
2017-07-18T06:13:39.836Z,19.70
2017-07-18T06:16:08.035Z,19.80
2017-07-18T06:18:36.190Z,19.80
2017-07-18T06:21:04.344Z,19.90
2017-07-18T06:23:32.540Z,19.90
2017-07-18T06:26:00.689Z,19.90
2017-07-18T06:28:28.842Z,20.00
2017-07-18T06:30:57.033Z,20.20
2017-07-18T06:33:25.197Z,20.20
2017-07-18T06:35:53.362Z,20.30
2017-07-18T06:38:21.561Z,20.30
2017-07-18T06:40:49.720Z,20.40
2017-07-18T06:43:17.887Z,20.30
2017-07-18T06:45:46.081Z,20.40
2017-07-18T06:48:14.275Z,20.40
2017-07-18T06:50:42.435Z,20.40
2017-07-18T06:53:10.636Z,20.50
2017-07-18T06:55:38.805Z,20.50
2017-07-18T06:58:06.954Z,20.40
2017-07-18T07:00:35.139Z,20.40
2017-07-18T07:03:03.312Z,20.60
2017-07-18T07:05:31.460Z,20.80
2017-07-18T07:07:59.672Z,20.90
2017-07-18T07:10:27.819Z,21.00
2017-07-18T07:12:55.970Z,21.10
2017-07-18T07:15:24.937Z,21.00
2017-07-18T07:17:53.086Z,21.00
2017-07-18T07:20:21.258Z,20.70
2017-07-18T07:22:49.454Z,20.90
2017-07-18T07:25:17.631Z,20.80
2017-07-18T07:27:45.803Z,20.80
2017-07-18T07:30:13.994Z,21.20
2017-07-18T07:32:42.175Z,21.10
2017-07-18T07:35:11.119Z,21.80
2017-07-18T07:37:39.306Z,21.80
2017-07-18T07:40:07.476Z,22.10
2017-07-18T07:42:35.659Z,22.10
2017-07-18T07:45:03.855Z,22.30
2017-07-18T07:47:32.037Z,22.20
2017-07-18T07:50:00.977Z,21.70
2017-07-18T07:52:29.174Z,21.70
2017-07-18T07:54:57.328Z,21.30
2017-07-18T07:57:25.498Z,21.20
2017-07-18T07:59:53.688Z,21.20
2017-07-18T08:02:21.855Z,21.20
2017-07-18T08:04:50.007Z,21.20
2017-07-18T08:07:18.201Z,21.20
2017-07-18T08:09:46.398Z,21.20
2017-07-18T08:12:14.566Z,21.30
2017-07-18T08:14:42.742Z,21.40
2017-07-18T08:17:10.902Z,21.50
2017-07-18T08:19:39.054Z,21.30
2017-07-18T08:22:07.252Z,21.50
2017-07-18T08:24:35.407Z,21.50
2017-07-18T08:27:03.555Z,21.50
2017-07-18T08:29:32.508Z,21.70
2017-07-18T08:32:00.650Z,21.70
2017-07-18T08:34:28.802Z,21.70
2017-07-18T08:36:57.000Z,21.80
2017-07-18T08:39:25.145Z,21.80
2017-07-18T08:41:54.058Z,21.90
2017-07-18T08:44:22.238Z,21.90
2017-07-18T08:46:50.416Z,22.10
2017-07-18T08:49:18.585Z,22.10
2017-07-18T08:51:46.758Z,22.30
2017-07-18T08:54:14.922Z,22.30
2017-07-18T08:56:43.101Z,22.40
2017-07-18T08:59:11.279Z,22.30
2017-07-18T09:01:39.430Z,22.50
2017-07-18T09:04:08.352Z,22.50
2017-07-18T09:06:36.537Z,22.50
2017-07-18T09:09:04.695Z,22.40
2017-07-18T09:11:32.855Z,22.40
2017-07-18T09:14:01.062Z,22.50
2017-07-18T09:16:29.206Z,22.50
2017-07-18T09:18:57.380Z,22.40
2017-07-18T09:21:26.361Z,22.50
2017-07-18T09:23:55.307Z,22.70
2017-07-18T09:26:23.479Z,22.70
2017-07-18T09:28:51.681Z,23.20
2017-07-18T09:31:19.842Z,23.50
2017-07-18T09:33:48.018Z,23.30
2017-07-18T09:36:16.228Z,23.20
2017-07-18T09:38:45.162Z,24.60
2017-07-18T09:41:13.338Z,24.50
2017-07-18T09:43:41.960Z,25.00
2017-07-18T09:46:10.118Z,25.10
2017-07-18T09:48:38.270Z,25.10
2017-07-18T09:51:06.461Z,25.00
2017-07-18T09:53:34.641Z,24.60
2017-07-18T09:56:02.793Z,24.50
2017-07-18T09:58:31.005Z,24.70
2017-07-18T10:00:59.182Z,25.20
2017-07-18T10:03:27.354Z,25.70
2017-07-18T10:05:55.562Z,25.90
2017-07-18T10:08:24.512Z,25.10
2017-07-18T10:10:52.684Z,25.10
2017-07-18T10:13:20.857Z,25.20
2017-07-18T10:15:49.007Z,25.30
2017-07-18T10:18:17.154Z,25.50
2017-07-18T10:20:45.331Z,25.70
2017-07-18T10:23:13.510Z,26.10
2017-07-18T10:25:41.680Z,26.30
2017-07-18T10:28:09.870Z,26.30
2017-07-18T10:30:38.030Z,26.20
2017-07-18T10:33:06.203Z,26.20
2017-07-18T10:35:34.387Z,26.50
2017-07-18T10:38:02.554Z,27.00
2017-07-18T10:40:30.718Z,28.20
2017-07-18T10:42:59.760Z,29.00
2017-07-18T10:45:28.032Z,29.00
2017-07-18T10:47:56.182Z,28.30
2017-07-18T10:50:24.366Z,27.30
2017-07-18T10:52:52.533Z,27.30
2017-07-18T10:55:20.694Z,28.40
2017-07-18T10:57:48.882Z,30.10
2017-07-18T11:00:17.033Z,32.30
2017-07-18T11:02:45.972Z,33.80
2017-07-18T11:05:14.161Z,33.70
2017-07-18T11:07:42.314Z,34.60
2017-07-18T11:10:10.490Z,35.70
2017-07-18T11:12:38.682Z,37.00
2017-07-18T11:15:06.843Z,38.20
2017-07-18T11:17:34.985Z,38.80
2017-07-18T11:20:03.979Z,39.80
2017-07-18T11:22:32.909Z,40.60
2017-07-18T11:25:01.059Z,40.60
2017-07-18T11:27:29.245Z,39.80
2017-07-18T11:29:57.410Z,39.00
2017-07-18T11:32:25.576Z,38.70
2017-07-18T11:34:53.749Z,37.70
2017-07-18T11:37:21.930Z,36.30
2017-07-18T11:39:50.105Z,35.20
2017-07-18T11:42:18.305Z,35.10
2017-07-18T11:44:46.457Z,33.80
2017-07-18T11:47:14.637Z,33.70
2017-07-18T11:49:42.845Z,32.30
2017-07-18T11:52:11.034Z,31.30
2017-07-18T11:54:39.228Z,30.10
2017-07-18T11:57:07.430Z,28.90
2017-07-18T11:59:35.601Z,28.70
2017-07-18T12:02:03.751Z,28.90
2017-07-18T12:04:32.695Z,28.90
2017-07-18T12:07:00.851Z,28.90
2017-07-18T12:09:29.007Z,28.50
2017-07-18T12:11:57.190Z,28.30
2017-07-18T12:14:25.342Z,28.20
2017-07-18T12:16:54.274Z,27.00
2017-07-18T12:19:22.472Z,27.00
2017-07-18T12:21:50.626Z,26.90
2017-07-18T12:24:18.812Z,26.80
2017-07-18T12:26:47.005Z,26.80
2017-07-18T12:29:15.167Z,26.90
2017-07-18T12:31:43.323Z,27.00
2017-07-18T12:34:11.527Z,26.80
2017-07-18T12:36:39.803Z,27.10
2017-07-18T12:39:07.996Z,27.20
2017-07-18T12:41:36.973Z,26.90
2017-07-18T12:44:05.167Z,26.90
2017-07-18T12:46:34.094Z,26.50
2017-07-18T12:49:02.295Z,26.40
2017-07-18T12:51:30.452Z,26.20
2017-07-18T12:53:58.617Z,26.30
2017-07-18T12:56:26.802Z,26.40
2017-07-18T12:58:54.972Z,26.70
2017-07-18T13:01:23.130Z,26.60
2017-07-18T13:03:51.338Z,26.80
2017-07-18T13:06:19.490Z,26.90
2017-07-18T13:08:47.655Z,26.90
2017-07-18T13:11:15.842Z,27.10
2017-07-18T13:13:44.021Z,27.20
2017-07-18T13:16:12.191Z,27.30
2017-07-18T13:18:40.390Z,27.50
2017-07-18T13:21:08.538Z,27.60
2017-07-18T13:23:36.743Z,27.60
2017-07-18T13:26:04.961Z,27.60
2017-07-18T13:28:33.149Z,27.80
2017-07-18T13:31:01.319Z,27.70
2017-07-18T13:33:30.281Z,27.50
2017-07-18T13:35:58.466Z,27.50
2017-07-18T13:38:26.649Z,27.60
2017-07-18T13:40:55.615Z,27.50
2017-07-18T13:43:23.793Z,27.50
2017-07-18T13:45:51.972Z,27.30
2017-07-18T13:48:20.180Z,27.40
2017-07-18T13:50:49.123Z,27.10
2017-07-18T13:53:17.282Z,27.10
2017-07-18T13:55:45.466Z,27.10
2017-07-18T13:58:13.656Z,27.00
2017-07-18T14:00:41.834Z,26.80
2017-07-18T14:03:10.030Z,26.60
2017-07-18T14:05:38.968Z,26.20
2017-07-18T14:08:07.138Z,26.20
2017-07-18T14:10:35.348Z,26.10
2017-07-18T14:13:03.518Z,26.20
2017-07-18T14:15:31.691Z,26.10
2017-07-18T14:17:59.880Z,26.10
2017-07-18T14:20:28.066Z,26.00
2017-07-18T14:22:56.237Z,25.70
2017-07-18T14:25:24.451Z,25.70
2017-07-18T14:27:52.611Z,25.80
2017-07-18T14:30:26.601Z,25.70
2017-07-18T14:32:54.806Z,25.60
2017-07-18T14:35:22.969Z,25.50
2017-07-18T14:37:51.908Z,25.50
2017-07-18T14:40:20.104Z,25.50
2017-07-18T14:42:48.251Z,25.70
2017-07-18T14:45:16.433Z,25.60
2017-07-18T14:47:44.633Z,25.70
2017-07-18T14:50:12.778Z,25.80
2017-07-18T14:52:40.929Z,25.90
2017-07-18T14:55:09.120Z,25.90
2017-07-18T14:57:37.330Z,25.60
2017-07-18T15:00:05.472Z,25.80
2017-07-18T15:02:33.654Z,25.80
2017-07-18T15:05:01.802Z,25.80
2017-07-18T15:07:29.976Z,25.60
2017-07-18T15:09:58.179Z,25.60
2017-07-18T15:12:26.350Z,25.60
2017-07-18T15:14:54.519Z,25.40
2017-07-18T15:17:22.694Z,25.30
2017-07-18T15:19:50.850Z,25.40
2017-07-18T15:22:19.009Z,25.40
2017-07-18T15:24:47.972Z,25.10
2017-07-18T15:27:16.123Z,25.10
2017-07-18T15:29:44.293Z,25.00
2017-07-18T15:32:12.501Z,24.90
2017-07-18T15:34:41.442Z,25.10
2017-07-18T15:37:09.609Z,25.10
2017-07-18T15:39:37.804Z,25.20
2017-07-18T15:42:05.960Z,25.00
2017-07-18T15:44:34.105Z,24.60
2017-07-18T15:47:03.055Z,24.70
2017-07-18T15:49:31.203Z,24.70
2017-07-18T15:51:59.358Z,24.80
2017-07-18T15:54:28.318Z,25.00
2017-07-18T15:56:56.484Z,25.00
2017-07-18T15:59:24.638Z,25.10
2017-07-18T16:01:52.814Z,24.90
2017-07-18T16:04:20.983Z,25.00
2017-07-18T16:06:49.157Z,25.00
2017-07-18T16:09:17.351Z,25.10
2017-07-18T16:11:45.529Z,25.20
2017-07-18T16:14:13.692Z,25.00
2017-07-18T16:16:41.892Z,24.80
2017-07-18T16:19:10.051Z,24.70
2017-07-18T16:21:38.201Z,24.60
2017-07-18T16:24:06.401Z,24.50
2017-07-18T16:26:34.578Z,24.60
2017-07-18T16:29:02.744Z,24.60
2017-07-18T16:31:30.942Z,24.50
2017-07-18T16:33:59.094Z,24.60
2017-07-18T16:36:27.250Z,24.50
2017-07-18T16:38:55.427Z,24.30
2017-07-18T16:41:23.582Z,24.30
2017-07-18T16:43:51.768Z,24.20
2017-07-18T16:46:19.957Z,24.00
2017-07-18T16:48:48.099Z,23.80
2017-07-18T16:51:16.282Z,23.70
2017-07-18T16:53:44.453Z,23.70
2017-07-18T16:56:12.616Z,23.60
2017-07-18T16:58:41.547Z,23.60
2017-07-18T17:01:09.744Z,23.60
2017-07-18T17:03:37.907Z,23.70
2017-07-18T17:06:06.053Z,23.70
2017-07-18T17:08:34.306Z,23.80
2017-07-18T17:11:03.254Z,23.70
2017-07-18T17:13:31.421Z,23.70
2017-07-18T17:15:59.599Z,23.70
2017-07-18T17:18:27.746Z,23.80
2017-07-18T17:20:55.911Z,23.70
2017-07-18T17:23:24.116Z,23.80
2017-07-18T17:25:52.273Z,23.80
2017-07-18T17:28:20.422Z,23.80
2017-07-18T17:30:49.386Z,23.60
2017-07-18T17:33:17.540Z,23.60
2017-07-18T17:35:45.725Z,23.50
2017-07-18T17:38:13.897Z,23.40
2017-07-18T17:40:42.065Z,23.40
2017-07-18T17:43:10.210Z,23.40
2017-07-18T17:45:38.402Z,23.30
2017-07-18T17:48:06.998Z,23.30
2017-07-18T17:50:35.159Z,23.40
2017-07-18T17:53:03.332Z,23.30
2017-07-18T17:55:31.501Z,23.20
2017-07-18T17:57:59.646Z,23.20
2017-07-18T18:00:27.835Z,23.20
2017-07-18T18:02:55.983Z,23.20
2017-07-18T18:05:24.901Z,23.30
2017-07-18T18:07:53.074Z,23.20
2017-07-18T18:10:21.230Z,23.10
2017-07-18T18:12:49.398Z,23.10
2017-07-18T18:15:18.369Z,23.00
2017-07-18T18:17:46.536Z,22.90
2017-07-18T18:20:14.679Z,23.00
2017-07-18T18:22:42.852Z,23.00
2017-07-18T18:25:11.035Z,22.90
2017-07-18T18:27:39.205Z,22.90
2017-07-18T18:30:07.389Z,22.80
2017-07-18T18:32:35.533Z,22.80
2017-07-18T18:35:03.678Z,22.80
2017-07-18T18:37:33.522Z,22.70
2017-07-18T18:40:02.159Z,22.70
2017-07-18T18:42:31.135Z,22.70
2017-07-18T18:44:59.323Z,22.70
2017-07-18T18:47:27.472Z,22.70
2017-07-18T18:49:55.633Z,22.70
2017-07-18T18:52:23.824Z,22.70
2017-07-18T18:54:52.006Z,22.60
2017-07-18T18:57:20.179Z,22.60
2017-07-18T18:59:48.358Z,22.60
2017-07-18T19:02:16.527Z,22.60
2017-07-18T19:04:44.713Z,22.70
2017-07-18T19:07:12.909Z,22.50
2017-07-18T19:09:41.060Z,22.50
2017-07-18T19:12:09.215Z,22.50
2017-07-18T19:14:37.413Z,22.50
2017-07-18T19:17:05.614Z,22.30
2017-07-18T19:19:33.790Z,22.20
2017-07-18T19:22:01.997Z,22.00
2017-07-18T19:24:30.143Z,21.80
2017-07-18T19:26:58.317Z,21.40
2017-07-18T19:29:26.485Z,21.30
2017-07-18T19:31:55.399Z,21.20
2017-07-18T19:34:23.574Z,21.10
2017-07-18T19:36:51.755Z,21.20
2017-07-18T19:39:19.901Z,21.00
2017-07-18T19:41:48.061Z,21.00
2017-07-18T19:44:17.011Z,20.80
2017-07-18T19:46:45.179Z,20.80
2017-07-18T19:49:13.326Z,20.70
2017-07-18T19:51:41.525Z,20.70
2017-07-18T19:54:09.707Z,20.70
2017-07-18T19:56:37.876Z,20.70
2017-07-18T19:59:06.072Z,20.60
2017-07-18T20:01:34.254Z,20.50
2017-07-18T20:04:02.410Z,20.40
2017-07-18T20:06:30.604Z,20.50
2017-07-18T20:08:59.593Z,20.40
2017-07-18T20:11:27.807Z,20.30
2017-07-18T20:13:56.844Z,20.10
2017-07-18T20:16:25.017Z,20.10
2017-07-18T20:18:53.192Z,20.10
2017-07-18T20:21:21.378Z,20.00
2017-07-18T20:23:49.550Z,19.90
2017-07-18T20:26:17.725Z,19.80
2017-07-18T20:28:45.901Z,19.80
2017-07-18T20:31:14.051Z,19.80
2017-07-18T20:33:42.199Z,19.70
2017-07-18T20:36:11.144Z,19.40
2017-07-18T20:38:39.287Z,19.40
2017-07-18T20:41:07.441Z,19.40
2017-07-18T20:43:36.473Z,19.50
2017-07-18T20:46:04.622Z,19.40
2017-07-18T20:48:32.774Z,19.30
2017-07-18T20:51:01.741Z,19.20
2017-07-18T20:53:29.910Z,19.20
2017-07-18T20:55:58.066Z,19.20
2017-07-18T20:58:26.251Z,19.20
2017-07-18T21:00:54.421Z,19.10
2017-07-18T21:03:22.615Z,19.10
2017-07-18T21:05:50.825Z,19.10
2017-07-18T21:08:19.752Z,19.00
2017-07-18T21:10:47.921Z,19.00
2017-07-18T21:13:16.099Z,19.00
2017-07-18T21:15:44.246Z,18.90
2017-07-18T21:18:12.407Z,18.80
2017-07-18T21:20:41.373Z,18.80
2017-07-18T21:23:09.554Z,18.70
2017-07-18T21:25:37.732Z,18.80
2017-07-18T21:28:05.932Z,18.70
2017-07-18T21:30:34.868Z,18.50
2017-07-18T21:33:03.032Z,18.50
2017-07-18T21:35:31.215Z,18.60
2017-07-18T21:37:59.403Z,18.60
2017-07-18T21:40:27.555Z,18.50
2017-07-18T21:42:55.734Z,18.30
2017-07-18T21:45:23.882Z,18.30
2017-07-18T21:47:52.030Z,18.30
2017-07-18T21:50:20.992Z,18.30
2017-07-18T21:52:49.146Z,18.20
2017-07-18T21:55:17.291Z,18.20
2017-07-18T21:57:45.485Z,18.20
2017-07-18T22:00:13.641Z,18.20
2017-07-18T22:02:41.799Z,18.20
2017-07-18T22:05:10.775Z,18.10
2017-07-18T22:07:38.927Z,18.10
2017-07-18T22:10:07.097Z,18.10
2017-07-18T22:12:35.305Z,18.00
2017-07-18T22:15:03.476Z,17.90
2017-07-18T22:17:31.640Z,17.80
2017-07-18T22:19:59.832Z,17.80
2017-07-18T22:22:27.997Z,17.80
2017-07-18T22:24:56.172Z,17.80
2017-07-18T22:27:24.365Z,17.80
2017-07-18T22:29:52.811Z,17.70
2017-07-18T22:32:21.788Z,17.60
2017-07-18T22:34:49.960Z,17.60
2017-07-18T22:37:18.110Z,17.60
2017-07-18T22:39:46.276Z,17.70
2017-07-18T22:42:14.463Z,17.70
2017-07-18T22:44:42.619Z,17.80
2017-07-18T22:47:10.767Z,17.70
2017-07-18T22:49:38.981Z,17.60
2017-07-18T22:52:07.139Z,17.50
2017-07-18T22:54:37.018Z,17.50
2017-07-18T22:57:05.211Z,17.40
2017-07-18T22:59:33.387Z,17.40
2017-07-18T23:02:01.568Z,17.30
2017-07-18T23:04:30.536Z,17.30
2017-07-18T23:06:58.710Z,17.30
2017-07-18T23:09:26.861Z,17.20
2017-07-18T23:11:55.057Z,17.30
2017-07-18T23:14:23.241Z,17.20
2017-07-18T23:16:51.389Z,17.20
2017-07-18T23:19:19.576Z,17.20
2017-07-18T23:21:47.740Z,17.10
2017-07-18T23:24:15.926Z,17.10
2017-07-18T23:26:44.099Z,17.10
2017-07-18T23:29:12.256Z,17.10
2017-07-18T23:31:40.405Z,17.20
2017-07-18T23:34:08.605Z,17.20
2017-07-18T23:36:36.773Z,17.20
2017-07-18T23:39:04.947Z,17.10
2017-07-18T23:41:33.157Z,17.00
2017-07-18T23:44:01.321Z,17.00
2017-07-18T23:46:29.506Z,17.10
2017-07-18T23:48:57.697Z,17.00
2017-07-18T23:51:25.849Z,17.00
2017-07-18T23:53:54.006Z,17.00
2017-07-18T23:56:22.205Z,17.10
2017-07-18T23:58:50.353Z,17.00
